createdAt,value
2023-01-30T00:02:20.597Z,100740.22
2023-01-30T00:04:48.878Z,100754.09
2023-01-30T00:07:17.384Z,100750.75
2023-01-30T00:09:47.637Z,100745.56
2023-01-30T00:12:15.856Z,100752.38
2023-01-30T00:14:44.102Z,100742.13
2023-01-30T00:17:13.571Z,100720.25
2023-01-30T00:19:41.725Z,100730.69
2023-01-30T00:22:09.876Z,100719.59
2023-01-30T00:24:38.139Z,100709.06
2023-01-30T00:27:06.633Z,100690.38
2023-01-30T00:29:34.888Z,100687.09
2023-01-30T00:32:03.621Z,100683.66
2023-01-30T00:34:34.009Z,100689.13
2023-01-30T00:37:08.474Z,100685.38
2023-01-30T00:39:36.866Z,100677.50
2023-01-30T00:42:22.666Z,100665.38
2023-01-30T00:45:08.468Z,100656.66
2023-01-30T00:47:37.159Z,100654.22
2023-01-30T00:50:07.532Z,100628.72
2023-01-30T00:52:42.019Z,100615.84
2023-01-30T00:55:10.650Z,100589.66
2023-01-30T00:57:38.816Z,100577.56
2023-01-30T01:00:09.277Z,100572.97
2023-01-30T01:02:37.735Z,100552.84
2023-01-30T01:05:08.163Z,100545.91
2023-01-30T01:07:36.545Z,100539.03
2023-01-30T01:10:05.128Z,100530.38
2023-01-30T01:12:33.261Z,100522.38
2023-01-30T01:15:01.527Z,100521.50
2023-01-30T01:17:29.772Z,100521.78
2023-01-30T01:19:57.927Z,100495.72
2023-01-30T01:22:29.057Z,100528.69
2023-01-30T01:24:57.223Z,100516.50
2023-01-30T01:27:25.381Z,100521.72
2023-01-30T01:29:53.518Z,100520.66
2023-01-30T01:32:22.095Z,100506.75
2023-01-30T01:34:50.398Z,100497.31
2023-01-30T01:37:18.552Z,100456.22
2023-01-30T01:40:10.888Z,100437.94
2023-01-30T01:42:40.338Z,100435.13
2023-01-30T01:45:18.929Z,100430.94
2023-01-30T01:47:58.628Z,100437.03
2023-01-30T01:50:31.558Z,100429.44
2023-01-30T01:53:03.090Z,100432.97
2023-01-30T01:55:32.826Z,100443.19
2023-01-30T01:58:05.608Z,100437.00
2023-01-30T02:00:34.094Z,100441.41
2023-01-30T02:03:06.662Z,100462.22
2023-01-30T02:05:37.773Z,100449.22
2023-01-30T02:08:10.240Z,100447.34
2023-01-30T02:10:47.935Z,100457.91
2023-01-30T02:13:16.927Z,100432.84
2023-01-30T02:15:45.221Z,100418.75
2023-01-30T02:18:14.445Z,100402.19
2023-01-30T02:20:56.863Z,100404.16
2023-01-30T02:24:00.244Z,100378.94
2023-01-30T02:26:50.919Z,100365.38
2023-01-30T02:29:52.715Z,100372.34
2023-01-30T02:32:30.722Z,100360.91
2023-01-30T02:35:06.390Z,100350.66
2023-01-30T02:37:48.305Z,100337.66
2023-01-30T02:40:29.191Z,100333.19
2023-01-30T02:43:09.177Z,100323.53
2023-01-30T02:45:43.511Z,100321.78
2023-01-30T02:48:22.315Z,100303.56
2023-01-30T02:50:57.026Z,100304.53
2023-01-30T02:53:25.889Z,100313.09
2023-01-30T02:55:54.086Z,100318.34
2023-01-30T02:58:25.197Z,100309.47
2023-01-30T03:01:07.559Z,100299.94
2023-01-30T03:03:59.276Z,100303.59
2023-01-30T03:06:48.059Z,100283.16
2023-01-30T03:09:28.287Z,100271.13
2023-01-30T03:12:04.900Z,100285.16
2023-01-30T03:14:45.565Z,100273.09
2023-01-30T03:17:16.082Z,100268.97
2023-01-30T03:19:46.305Z,100270.75
2023-01-30T03:22:14.494Z,100266.59
2023-01-30T03:24:43.150Z,100276.47
2023-01-30T03:27:13.427Z,100289.44
2023-01-30T03:29:41.671Z,100273.91
2023-01-30T03:32:10.148Z,100268.75
2023-01-30T03:34:38.710Z,100277.38
2023-01-30T03:37:08.259Z,100275.91
2023-01-30T03:39:37.844Z,100255.19
2023-01-30T03:42:07.878Z,100261.78
2023-01-30T03:44:36.176Z,100265.34
2023-01-30T03:47:04.331Z,100269.53
2023-01-30T03:49:33.263Z,100272.13
2023-01-30T03:52:01.472Z,100267.97
2023-01-30T03:54:31.273Z,100261.56
2023-01-30T03:57:00.371Z,100259.06
2023-01-30T03:59:28.611Z,100245.00
2023-01-30T04:02:05.141Z,100229.13
2023-01-30T04:04:34.209Z,100231.69
2023-01-30T04:07:04.394Z,100210.84
2023-01-30T04:09:35.712Z,100201.91
2023-01-30T04:12:04.069Z,100208.78
2023-01-30T04:14:37.418Z,100212.28
2023-01-30T04:17:16.126Z,100195.81
2023-01-30T04:20:08.702Z,100183.72
2023-01-30T04:22:38.617Z,100194.09
2023-01-30T04:25:10.117Z,100191.03
2023-01-30T04:27:38.432Z,100179.03
2023-01-30T04:30:16.488Z,100168.50
2023-01-30T04:32:45.237Z,100166.63
2023-01-30T04:35:13.436Z,100161.59
2023-01-30T04:37:42.519Z,100160.66
2023-01-30T04:40:15.208Z,100150.31
2023-01-30T04:42:43.387Z,100154.91
2023-01-30T04:45:47.499Z,100143.59
2023-01-30T04:48:16.775Z,100138.16
2023-01-30T04:50:49.251Z,100131.56
2023-01-30T04:53:18.523Z,100128.31
2023-01-30T04:55:48.492Z,100124.44
2023-01-30T04:58:16.737Z,100116.75
2023-01-30T05:00:44.952Z,100104.34
2023-01-30T05:03:13.461Z,100093.84
2023-01-30T05:05:41.590Z,100094.41
2023-01-30T05:08:10.357Z,100088.47
2023-01-30T05:10:38.935Z,100087.56
2023-01-30T05:13:08.546Z,100079.03
2023-01-30T05:15:36.717Z,100061.75
2023-01-30T05:18:05.091Z,100063.53
2023-01-30T05:20:33.302Z,100052.53
2023-01-30T05:23:01.467Z,100048.06
2023-01-30T05:25:29.785Z,100051.97
2023-01-30T05:27:58.097Z,100042.59
2023-01-30T05:30:27.611Z,100054.41
2023-01-30T05:32:55.809Z,100034.50
2023-01-30T05:35:24.001Z,100045.50
2023-01-30T05:37:52.522Z,100051.81
2023-01-30T05:40:20.663Z,100042.09
2023-01-30T05:42:48.845Z,100048.25
2023-01-30T05:45:17.339Z,100043.72
2023-01-30T05:47:51.841Z,100053.19
2023-01-30T05:50:20.076Z,100047.31
2023-01-30T05:52:48.458Z,100042.03
2023-01-30T05:55:17.110Z,100052.13
2023-01-30T05:57:45.344Z,100030.63
2023-01-30T06:00:14.537Z,100033.47
2023-01-30T06:02:42.749Z,100030.41
2023-01-30T06:05:12.235Z,100032.41
2023-01-30T06:07:40.412Z,100023.31
2023-01-30T06:10:09.444Z,100016.59
2023-01-30T06:12:37.793Z,100014.00
2023-01-30T06:15:07.291Z,100022.47
2023-01-30T06:17:35.468Z,100014.75
2023-01-30T06:20:04.228Z,100020.94
2023-01-30T06:22:33.789Z,100032.00
2023-01-30T06:25:01.945Z,100030.06
2023-01-30T06:27:30.101Z,100036.41
2023-01-30T06:29:58.266Z,100044.25
2023-01-30T06:32:26.410Z,100040.63
2023-01-30T06:34:54.541Z,100043.13
2023-01-30T06:37:22.693Z,100034.50
2023-01-30T06:39:52.169Z,100049.81
2023-01-30T06:42:20.326Z,100034.41
2023-01-30T06:44:48.451Z,100041.84
2023-01-30T06:47:16.638Z,100030.69
2023-01-30T06:49:44.805Z,100033.03
2023-01-30T06:52:12.945Z,100027.94
2023-01-30T06:54:41.120Z,100026.97
2023-01-30T06:57:10.685Z,100028.56
2023-01-30T06:59:39.074Z,100025.16
2023-01-30T07:02:07.696Z,100026.63
2023-01-30T07:04:36.027Z,100026.16
2023-01-30T07:07:05.283Z,100024.44
2023-01-30T07:09:34.997Z,100020.28
2023-01-30T07:12:03.545Z,100031.56
2023-01-30T07:14:33.411Z,100024.34
2023-01-30T07:17:01.590Z,100024.50
2023-01-30T07:19:29.751Z,100014.00
2023-01-30T07:21:57.863Z,100011.97
2023-01-30T07:24:26.479Z,100011.00
2023-01-30T07:26:54.619Z,100005.69
2023-01-30T07:29:22.729Z,100014.53
2023-01-30T07:31:52.608Z,100011.47
2023-01-30T07:34:21.014Z,100009.72
2023-01-30T07:36:49.131Z,100008.13
2023-01-30T07:39:17.252Z,100014.25
2023-01-30T07:41:45.405Z,100010.41
2023-01-30T07:44:13.813Z,100016.31
2023-01-30T07:46:41.992Z,100012.25
2023-01-30T07:49:11.705Z,100021.81
2023-01-30T07:51:39.836Z,100025.88
2023-01-30T07:54:08.012Z,100019.91
2023-01-30T07:56:36.213Z,100020.91
2023-01-30T07:59:05.689Z,100014.47
2023-01-30T08:01:33.896Z,100025.69
2023-01-30T08:04:02.065Z,100030.28
2023-01-30T08:06:31.746Z,100033.00
2023-01-30T08:08:59.903Z,100028.75
2023-01-30T08:11:28.174Z,100025.78
2023-01-30T08:13:56.304Z,100040.44
2023-01-30T08:16:24.565Z,100028.16
2023-01-30T08:18:52.757Z,100024.38
2023-01-30T08:21:20.884Z,100029.78
2023-01-30T08:23:50.935Z,100036.38
2023-01-30T08:26:19.401Z,100029.00
2023-01-30T08:28:47.569Z,100031.63
2023-01-30T08:31:17.570Z,100032.13
2023-01-30T08:33:46.095Z,100036.44
2023-01-30T08:36:14.597Z,100040.59
2023-01-30T08:38:42.748Z,100018.34
2023-01-30T08:41:12.214Z,100031.69
2023-01-30T08:43:40.362Z,100022.91
2023-01-30T08:46:08.700Z,100012.56
2023-01-30T08:48:49.092Z,100006.91
2023-01-30T08:51:18.872Z,100012.16
2023-01-30T08:53:47.077Z,100007.84
2023-01-30T08:56:16.605Z,100028.84
2023-01-30T08:58:46.563Z,100032.88
2023-01-30T09:01:14.797Z,100026.22
2023-01-30T09:03:43.584Z,100048.03
2023-01-30T09:06:12.055Z,100043.34
2023-01-30T09:08:40.274Z,100031.47
2023-01-30T09:11:08.594Z,100049.06
2023-01-30T09:13:40.951Z,100040.78
2023-01-30T09:16:09.135Z,100035.28
2023-01-30T09:18:39.711Z,100041.00
2023-01-30T09:21:08.517Z,100046.97
2023-01-30T09:23:37.010Z,100046.13
2023-01-30T09:26:06.699Z,100046.50
2023-01-30T09:28:36.140Z,100043.81
2023-01-30T09:31:06.606Z,100049.19
2023-01-30T09:33:34.878Z,100047.88
2023-01-30T09:36:03.035Z,100046.72
2023-01-30T09:38:31.211Z,100049.88
2023-01-30T09:41:19.380Z,100045.94
2023-01-30T09:44:05.911Z,100047.63
2023-01-30T09:46:47.460Z,100039.53
2023-01-30T09:49:27.024Z,100055.66
2023-01-30T09:52:04.534Z,100050.88
2023-01-30T09:54:37.612Z,100034.78
2023-01-30T09:57:21.281Z,100038.69
2023-01-30T09:59:57.985Z,100040.81
2023-01-30T10:02:36.674Z,100032.03
2023-01-30T10:05:06.539Z,100022.47
2023-01-30T10:07:58.643Z,100027.31
2023-01-30T10:10:38.409Z,100029.25
2023-01-30T10:13:14.770Z,100016.81
2023-01-30T10:15:53.191Z,100025.94
2023-01-30T10:18:44.962Z,100016.53
2023-01-30T10:21:24.704Z,100016.94
2023-01-30T10:24:12.140Z,100007.31
2023-01-30T10:26:42.710Z,100012.72
2023-01-30T10:29:15.710Z,100005.63
2023-01-30T10:31:47.582Z,100006.50
2023-01-30T10:34:21.961Z,100005.69
2023-01-30T10:36:57.168Z,100005.38
2023-01-30T10:39:32.510Z,100006.59
2023-01-30T10:42:10.928Z,100010.22
2023-01-30T10:44:41.603Z,100011.28
2023-01-30T10:47:38.054Z,100006.88
2023-01-30T10:50:18.566Z,100001.50
2023-01-30T10:52:56.720Z,99997.94
2023-01-30T10:55:37.799Z,99981.81
2023-01-30T10:58:17.383Z,99969.84
2023-01-30T11:00:51.940Z,99960.84
2023-01-30T11:03:29.327Z,99954.13
2023-01-30T11:06:02.263Z,99931.19
2023-01-30T11:08:33.136Z,99923.53
2023-01-30T11:11:01.582Z,99920.19
2023-01-30T11:13:31.926Z,99914.16
2023-01-30T11:16:05.163Z,99911.06
2023-01-30T11:19:18.152Z,99914.75
2023-01-30T11:21:42.075Z,99894.91
2023-01-30T11:24:17.951Z,99875.47
2023-01-30T11:26:48.301Z,99866.41
2023-01-30T11:29:28.784Z,99860.56
2023-01-30T11:31:57.353Z,99846.75
2023-01-30T11:34:25.747Z,99834.34
2023-01-30T11:37:12.680Z,99833.25
2023-01-30T11:39:49.752Z,99829.47
2023-01-30T11:42:21.209Z,99815.88
2023-01-30T11:45:10.890Z,99788.25
2023-01-30T11:47:57.312Z,99784.97
2023-01-30T11:50:37.075Z,99773.06
2023-01-30T11:53:21.623Z,99769.69
2023-01-30T11:56:03.007Z,99763.94
2023-01-30T11:58:35.392Z,99766.38
2023-01-30T12:01:05.304Z,99745.59
2023-01-30T12:03:34.542Z,99744.50
2023-01-30T12:06:03.712Z,99744.56
2023-01-30T12:08:42.744Z,99745.34
2023-01-30T12:11:32.753Z,99726.22
2023-01-30T12:14:16.517Z,99734.56
2023-01-30T12:16:55.480Z,99729.84
2023-01-30T12:19:40.857Z,99727.72
2023-01-30T12:22:22.156Z,99724.25
2023-01-30T12:24:59.556Z,99727.56
2023-01-30T12:27:44.700Z,99730.03
2023-01-30T12:30:25.258Z,99730.59
2023-01-30T12:32:56.796Z,99732.66
2023-01-30T12:35:35.387Z,99734.75
2023-01-30T12:38:14.888Z,99724.22
2023-01-30T12:40:56.315Z,99741.75
2023-01-30T12:43:35.616Z,99730.81
2023-01-30T12:46:18.295Z,99733.63
2023-01-30T12:49:08.140Z,99737.88
2023-01-30T12:51:52.921Z,99731.97
2023-01-30T12:54:37.337Z,99729.00
2023-01-30T12:57:16.401Z,99729.97
2023-01-30T12:59:51.598Z,99703.13
2023-01-30T13:02:43.993Z,99715.63
2023-01-30T13:05:22.609Z,99715.91
2023-01-30T13:08:07.239Z,99703.47
2023-01-30T13:10:45.786Z,99693.19
2023-01-30T13:13:22.124Z,99711.69
2023-01-30T13:15:59.492Z,99722.22
2023-01-30T13:18:33.648Z,99722.31
2023-01-30T13:21:09.092Z,99716.59
2023-01-30T13:23:49.842Z,99719.81
2023-01-30T13:26:22.055Z,99716.22
2023-01-30T13:28:56.880Z,99705.31
2023-01-30T13:31:29.052Z,99701.22
2023-01-30T13:34:06.249Z,99707.75
2023-01-30T13:36:42.448Z,99698.59
2023-01-30T13:39:15.475Z,99699.63
2023-01-30T13:41:49.015Z,99701.31
2023-01-30T13:44:23.080Z,99705.16
2023-01-30T13:46:53.859Z,99701.84
2023-01-30T13:49:26.715Z,99695.41
2023-01-30T13:52:03.393Z,99696.31
2023-01-30T13:54:47.490Z,99687.41
2023-01-30T13:57:26.768Z,99685.63
2023-01-30T14:00:28.675Z,99698.78
2023-01-30T14:03:24.437Z,99694.38
2023-01-30T14:06:05.780Z,99699.41
2023-01-30T14:08:39.475Z,99691.50
2023-01-30T14:11:38.008Z,99701.03
2023-01-30T14:14:23.880Z,99678.22
2023-01-30T14:16:54.349Z,99691.72
2023-01-30T14:19:33.337Z,99694.34
2023-01-30T14:22:04.989Z,99693.31
2023-01-30T14:24:33.507Z,99666.34
2023-01-30T14:27:03.512Z,99700.44
2023-01-30T14:29:54.632Z,99716.22
2023-01-30T14:32:54.305Z,99725.47
2023-01-30T14:35:28.606Z,99716.41
2023-01-30T14:38:11.695Z,99738.53
2023-01-30T14:41:10.146Z,99738.72
2023-01-30T14:43:54.164Z,99762.22
2023-01-30T14:46:54.406Z,99772.72
2023-01-30T14:49:30.376Z,99787.66
2023-01-30T14:52:00.546Z,99800.13
2023-01-30T14:54:41.842Z,99806.31
2023-01-30T14:57:27.630Z,99797.66
2023-01-30T15:00:14.972Z,99810.38
2023-01-30T15:02:48.941Z,99822.91
2023-01-30T15:05:20.750Z,99821.06
2023-01-30T15:07:54.793Z,99847.75
2023-01-30T15:10:48.583Z,99833.91
2023-01-30T15:13:34.019Z,99840.00
2023-01-30T15:16:13.495Z,99841.50
2023-01-30T15:19:03.693Z,99844.59
2023-01-30T15:21:46.866Z,99847.53
2023-01-30T15:24:33.792Z,99838.72
2023-01-30T15:27:10.492Z,99852.25
2023-01-30T15:29:59.460Z,99859.28
2023-01-30T15:32:30.257Z,99861.84
2023-01-30T15:35:00.884Z,99860.00
2023-01-30T15:37:35.031Z,99867.34
2023-01-30T15:40:21.704Z,99855.00
2023-01-30T15:42:53.602Z,99867.69
2023-01-30T15:45:33.148Z,99867.63
2023-01-30T15:48:24.062Z,99859.59
2023-01-30T15:50:54.665Z,99875.00
2023-01-30T15:53:28.925Z,99874.84
2023-01-30T15:56:01.357Z,99878.63
2023-01-30T15:58:31.002Z,99878.56
2023-01-30T16:01:01.967Z,99884.09
2023-01-30T16:03:35.276Z,99889.91
2023-01-30T16:06:04.287Z,99882.75
2023-01-30T16:08:34.680Z,99892.53
2023-01-30T16:11:04.644Z,99894.94
2023-01-30T16:13:33.307Z,99901.75
2023-01-30T16:16:04.927Z,99904.00
2023-01-30T16:18:36.798Z,99910.41
2023-01-30T16:21:08.291Z,99911.81
2023-01-30T16:23:39.724Z,99925.72
2023-01-30T16:26:14.488Z,99919.84
2023-01-30T16:28:42.888Z,99936.75
2023-01-30T16:31:12.112Z,99923.31
2023-01-30T16:33:40.515Z,99939.00
2023-01-30T16:36:32.879Z,99935.06
2023-01-30T16:39:01.667Z,99939.53
2023-01-30T16:41:34.249Z,99934.81
2023-01-30T16:44:10.835Z,99951.81
2023-01-30T16:46:48.533Z,99949.25
2023-01-30T16:49:21.201Z,99954.13
2023-01-30T16:51:51.597Z,99951.44
2023-01-30T16:54:23.987Z,99944.50
2023-01-30T16:56:56.571Z,99953.91
2023-01-30T16:59:31.322Z,99957.41
2023-01-30T17:02:00.982Z,99967.75
2023-01-30T17:04:31.176Z,99961.72
2023-01-30T17:07:04.205Z,99960.94
2023-01-30T17:09:37.239Z,99961.59
2023-01-30T17:12:38.894Z,99963.06
2023-01-30T17:15:33.137Z,99975.91
2023-01-30T17:18:01.636Z,99976.69
2023-01-30T17:20:38.037Z,99974.06
2023-01-30T17:23:10.202Z,99985.94
2023-01-30T17:25:42.851Z,99982.09
2023-01-30T17:28:19.088Z,99999.72
2023-01-30T17:30:47.402Z,99996.00
2023-01-30T17:33:15.572Z,100004.97
2023-01-30T17:35:44.456Z,100004.25
2023-01-30T17:38:12.677Z,100004.81
2023-01-30T17:40:41.126Z,100008.22
2023-01-30T17:43:11.433Z,100027.75
2023-01-30T17:45:41.269Z,100023.84
2023-01-30T17:48:11.428Z,100022.34
2023-01-30T17:50:39.599Z,100025.81
2023-01-30T17:53:07.786Z,100028.66
2023-01-30T17:55:36.609Z,100052.97
2023-01-30T17:58:04.933Z,100040.78
2023-01-30T18:00:33.152Z,100054.50
2023-01-30T18:03:02.871Z,100064.16
2023-01-30T18:05:31.323Z,100072.75
2023-01-30T18:07:59.606Z,100072.53
2023-01-30T18:10:27.989Z,100070.53
2023-01-30T18:12:56.139Z,100092.50
2023-01-30T18:15:24.370Z,100105.34
2023-01-30T18:17:54.993Z,100095.50
2023-01-30T18:20:24.506Z,100109.47
2023-01-30T18:22:52.771Z,100115.56
2023-01-30T18:25:21.411Z,100121.41
2023-01-30T18:27:50.000Z,100112.88
2023-01-30T18:30:19.749Z,100137.50
2023-01-30T18:32:53.824Z,100119.06
2023-01-30T18:35:24.096Z,100141.78
2023-01-30T18:37:52.618Z,100153.22
2023-01-30T18:40:21.758Z,100147.25
2023-01-30T18:42:50.295Z,100158.59
2023-01-30T18:45:18.799Z,100153.50
2023-01-30T18:47:46.960Z,100160.44
2023-01-30T18:50:15.133Z,100169.13
2023-01-30T18:52:44.572Z,100171.53
2023-01-30T18:55:12.737Z,100174.81
2023-01-30T18:57:40.913Z,100177.34
2023-01-30T19:00:10.337Z,100176.22
2023-01-30T19:02:38.588Z,100181.72
2023-01-30T19:05:07.674Z,100189.31
2023-01-30T19:07:36.515Z,100204.78
2023-01-30T19:10:06.583Z,100201.88
2023-01-30T19:12:52.314Z,100204.22
2023-01-30T19:15:20.492Z,100209.94
2023-01-30T19:17:48.612Z,100218.72
2023-01-30T19:20:17.728Z,100220.50
2023-01-30T19:22:46.164Z,100236.06
2023-01-30T19:25:15.816Z,100236.84
2023-01-30T19:27:44.141Z,100239.53
2023-01-30T19:30:13.473Z,100236.06
2023-01-30T19:32:41.865Z,100235.63
2023-01-30T19:35:10.927Z,100240.00
2023-01-30T19:37:39.495Z,100250.19
2023-01-30T19:40:10.990Z,100256.41
2023-01-30T19:42:44.126Z,100268.78
2023-01-30T19:45:13.533Z,100265.91
2023-01-30T19:47:41.752Z,100269.56
2023-01-30T19:50:11.300Z,100279.22
2023-01-30T19:52:40.795Z,100277.56
2023-01-30T19:55:09.898Z,100278.84
2023-01-30T19:57:39.018Z,100284.41
2023-01-30T20:00:11.044Z,100283.81
2023-01-30T20:02:39.331Z,100303.81
2023-01-30T20:05:09.022Z,100293.22
2023-01-30T20:07:38.494Z,100289.97
2023-01-30T20:10:07.260Z,100299.28
2023-01-30T20:12:35.978Z,100303.81
2023-01-30T20:15:05.541Z,100305.59
2023-01-30T20:17:35.252Z,100307.84
2023-01-30T20:20:04.838Z,100317.69
2023-01-30T20:22:32.984Z,100319.53
2023-01-30T20:25:01.102Z,100333.81
2023-01-30T20:27:29.754Z,100344.25
2023-01-30T20:29:57.910Z,100356.84
2023-01-30T20:32:26.108Z,100360.31
2023-01-30T20:34:55.793Z,100365.72
2023-01-30T20:37:25.785Z,100357.19
2023-01-30T20:39:55.323Z,100369.00
2023-01-30T20:42:24.567Z,100376.69
2023-01-30T20:44:52.763Z,100379.47
2023-01-30T20:47:21.945Z,100385.78
2023-01-30T20:49:50.148Z,100382.34
2023-01-30T20:52:20.011Z,100377.09
2023-01-30T20:54:48.288Z,100378.09
2023-01-30T20:57:16.618Z,100389.75
2023-01-30T20:59:45.201Z,100404.31
2023-01-30T21:02:13.838Z,100408.72
2023-01-30T21:04:42.381Z,100418.00
2023-01-30T21:07:10.579Z,100411.44
2023-01-30T21:09:40.126Z,100431.03
2023-01-30T21:12:08.450Z,100434.56
2023-01-30T21:14:36.971Z,100427.38
2023-01-30T21:17:05.142Z,100427.19
2023-01-30T21:19:33.554Z,100440.69
2023-01-30T21:22:07.422Z,100451.59
2023-01-30T21:24:35.861Z,100454.72
2023-01-30T21:27:05.382Z,100459.88
2023-01-30T21:29:33.597Z,100480.19
2023-01-30T21:32:01.978Z,100482.25
2023-01-30T21:34:30.159Z,100493.00
2023-01-30T21:37:16.012Z,100500.19
2023-01-30T21:40:02.096Z,100505.38
2023-01-30T21:42:49.246Z,100504.31
2023-01-30T21:45:20.720Z,100521.56
2023-01-30T21:47:51.533Z,100534.72
2023-01-30T21:50:19.886Z,100515.72
2023-01-30T21:52:48.122Z,100509.13
2023-01-30T21:55:16.458Z,100510.63
2023-01-30T21:57:45.971Z,100516.41
2023-01-30T22:00:15.313Z,100514.53
2023-01-30T22:02:43.526Z,100534.94
2023-01-30T22:05:11.893Z,100534.72
2023-01-30T22:07:40.215Z,100532.13
2023-01-30T22:10:09.357Z,100543.72
2023-01-30T22:12:40.032Z,100534.16
2023-01-30T22:15:10.858Z,100550.94
2023-01-30T22:17:39.071Z,100553.78
2023-01-30T22:20:09.993Z,100548.72
2023-01-30T22:22:38.628Z,100551.50
2023-01-30T22:25:07.811Z,100552.19
2023-01-30T22:27:36.194Z,100565.53
2023-01-30T22:30:04.673Z,100576.97
2023-01-30T22:32:34.490Z,100574.97
2023-01-30T22:35:02.651Z,100579.38
2023-01-30T22:37:30.991Z,100583.59
2023-01-30T22:39:59.486Z,100593.38
2023-01-30T22:42:27.612Z,100599.34
2023-01-30T22:44:55.769Z,100594.97
2023-01-30T22:47:23.982Z,100607.22
2023-01-30T22:49:53.435Z,100616.94
2023-01-30T22:52:21.773Z,100625.88
2023-01-30T22:54:50.010Z,100626.50
2023-01-30T22:57:18.130Z,100625.00
2023-01-30T22:59:46.260Z,100626.69
2023-01-30T23:02:14.455Z,100635.47
2023-01-30T23:04:42.809Z,100639.03
2023-01-30T23:07:14.247Z,100649.06
2023-01-30T23:09:42.480Z,100639.19
2023-01-30T23:12:28.268Z,100659.34
2023-01-30T23:14:56.436Z,100649.69
2023-01-30T23:17:42.184Z,100666.41
2023-01-30T23:20:11.718Z,100671.03
2023-01-30T23:22:41.198Z,100677.03
2023-01-30T23:25:10.739Z,100671.03
2023-01-30T23:27:39.082Z,100683.41
2023-01-30T23:30:08.294Z,100696.91
2023-01-30T23:32:36.592Z,100682.97
2023-01-30T23:35:05.193Z,100679.84
2023-01-30T23:37:47.549Z,100696.09
2023-01-30T23:40:17.505Z,100680.97
2023-01-30T23:42:45.631Z,100698.72
2023-01-30T23:45:13.794Z,100700.44
2023-01-30T23:47:41.909Z,100704.66
2023-01-30T23:50:11.583Z,100694.31
2023-01-30T23:52:39.934Z,100705.91
2023-01-30T23:55:08.697Z,100701.56
2023-01-30T23:57:38.508Z,100711.38
